Time;durP1;ratioP1;P1;durP2;ratioP2;P2;SDS_P1;SDS_P2;PMS_P1;PMS_P2;Temp;Humidity;BMP_temperature;BMP_pressure;BME280_temperature;BME280_humidity;BME280_pressure;Samples;Min_cycle;Max_cycle;Signal;HPM_P1;HPM_P2
2023/02/17 00:00:57;;;;;;;49.47;32.10;;;;;;;8.73;100.00;100615.78;5108370;28;20511;-67
2023/02/17 00:03:24;;;;;;;50.97;30.90;;;;;;;8.64;100.00;100618.19;5123458;28;20420;-67
2023/02/17 00:05:51;;;;;;;46.33;32.07;;;;;;;8.60;100.00;100607.91;5121605;28;21058;-68
2023/02/17 00:08:18;;;;;;;45.43;30.90;;;;;;;8.71;100.00;100599.91;5122191;28;20438;-67
2023/02/17 00:10:44;;;;;;;49.47;31.57;;;;;;;8.73;100.00;100597.13;5122191;28;20524;-67
2023/02/17 00:13:11;;;;;;;42.43;31.03;;;;;;;8.75;100.00;100588.03;5104890;28;20442;-65
2023/02/17 00:15:38;;;;;;;44.40;32.97;;;;;;;8.66;100.00;100586.94;5108836;28;20470;-67
2023/02/17 00:18:06;;;;;;;47.73;33.17;;;;;;;8.63;100.00;100579.19;5123589;28;21066;-67
2023/02/17 00:20:33;;;;;;;45.80;32.63;;;;;;;8.67;100.00;100579.78;5107850;28;20472;-68
2023/02/17 00:22:59;;;;;;;44.67;31.20;;;;;;;8.74;100.00;100569.50;5106445;28;20491;-67
2023/02/17 00:25:26;;;;;;;45.20;32.57;;;;;;;8.80;100.00;100566.34;5120479;28;25771;-66
2023/02/17 00:27:53;;;;;;;45.50;32.43;;;;;;;8.78;100.00;100554.94;5105438;28;20445;-65
2023/02/17 00:30:19;;;;;;;49.10;32.30;;;;;;;8.66;100.00;100556.75;5110885;28;20964;-67
2023/02/17 00:32:46;;;;;;;52.10;33.40;;;;;;;8.89;100.00;100567.41;5117560;28;20470;-67
2023/02/17 00:35:14;;;;;;;47.23;33.80;;;;;;;8.77;100.00;100564.78;5105774;28;20449;-67
2023/02/17 00:37:44;;;;;;;51.17;34.20;;;;;;;8.79;100.00;100570.00;5109020;28;20899;-67
2023/02/17 00:40:11;;;;;;;49.57;35.03;;;;;;;8.82;100.00;100567.09;5092779;28;20446;-67
2023/02/17 00:42:38;;;;;;;50.53;32.97;;;;;;;8.71;100.00;100556.41;5111270;28;20464;-67
2023/02/17 00:45:05;;;;;;;48.10;33.23;;;;;;;8.74;100.00;100532.19;5107817;28;20489;-67
2023/02/17 00:47:32;;;;;;;54.57;34.87;;;;;;;8.82;100.00;100567.09;5120777;28;20493;-67
2023/02/17 00:49:59;;;;;;;48.60;34.63;;;;;;;8.88;100.00;100568.41;5122557;28;20439;-67
2023/02/17 00:52:27;;;;;;;53.10;33.57;;;;;;;8.93;100.00;100559.06;5116084;28;20472;-67
2023/02/17 00:54:53;;;;;;;49.53;33.13;;;;;;;8.98;100.00;100556.88;5107147;28;20484;-69
2023/02/17 00:57:20;;;;;;;47.77;33.57;;;;;;;8.94;100.00;100566.09;5104985;28;20492;-68
2023/02/17 00:59:46;;;;;;;49.17;34.90;;;;;;;8.90;100.00;100561.97;5104369;28;20451;-68
2023/02/17 01:02:13;;;;;;;51.90;35.07;;;;;;;9.05;100.00;100563.41;5108703;28;20556;-69
2023/02/17 01:04:40;;;;;;;48.97;32.67;;;;;;;8.87;100.00;100556.91;5119667;28;20444;-67
2023/02/17 01:07:07;;;;;;;49.37;34.90;;;;;;;9.09;100.00;100550.69;5111125;28;20482;-67
2023/02/17 01:09:35;;;;;;;47.10;33.97;;;;;;;9.01;100.00;100559.31;5113721;28;20438;-67
2023/02/17 01:12:01;;;;;;;50.40;34.23;;;;;;;9.07;100.00;100559.78;5119168;28;20474;-67
2023/02/17 01:14:28;;;;;;;47.73;32.87;;;;;;;9.01;100.00;100550.47;5105300;28;20475;-67
2023/02/17 01:16:54;;;;;;;51.53;34.20;;;;;;;8.90;100.00;100547.78;5113246;28;20507;-66
2023/02/17 01:19:21;;;;;;;48.17;33.77;;;;;;;8.94;100.00;100542.09;5105137;28;20446;-65
2023/02/17 01:21:48;;;;;;;49.43;34.90;;;;;;;9.07;100.00;100543.78;5110110;28;20486;-66
2023/02/17 01:24:14;;;;;;;46.00;33.97;;;;;;;9.07;100.00;100536.63;5104882;28;20454;-66
2023/02/17 01:26:42;;;;;;;50.77;34.67;;;;;;;9.07;100.00;100543.78;5112169;28;20503;-65
2023/02/17 01:29:09;;;;;;;51.40;34.43;;;;;;;8.95;100.00;100546.44;5111421;28;20500;-66
2023/02/17 01:31:36;;;;;;;48.87;33.80;;;;;;;8.90;100.00;100521.97;5106266;28;20504;-65
2023/02/17 01:34:04;;;;;;;53.50;36.47;;;;;;;8.99;100.00;100536.38;5098017;28;20440;-66
2023/02/17 01:36:31;;;;;;;53.33;36.67;;;;;;;9.11;100.00;100531.88;5111208;28;20498;-66
2023/02/17 01:38:58;;;;;;;52.10;34.07;;;;;;;9.02;100.00;100530.81;5110994;28;20457;-66
2023/02/17 01:41:29;;;;;;;52.50;34.53;;;;;;;8.99;100.00;100526.59;5102307;28;20502;-66
2023/02/17 01:44:12;;;;;;;50.07;34.23;;;;;;;9.15;100.00;100536.00;5105087;28;20469;-67
2023/02/17 01:46:40;;;;;;;47.67;32.77;;;;;;;9.13;100.00;100516.59;5104986;28;20473;-68
2023/02/17 01:49:15;;;;;;;48.03;35.50;;;;;;;9.06;100.00;100510.91;5109388;28;20445;-68
2023/02/17 01:51:42;;;;;;;53.67;36.80;;;;;;;9.12;100.00;100517.59;5111554;28;20898;-68
2023/02/17 01:54:13;;;;;;;52.50;34.47;;;;;;;9.15;100.00;100511.97;5098670;28;20473;-69
2023/02/17 01:56:43;;;;;;;49.83;35.20;;;;;;;9.23;100.00;100507.75;5107913;28;20922;-69
2023/02/17 01:59:14;;;;;;;49.70;35.93;;;;;;;9.11;100.00;100495.38;5117252;28;20441;-69
2023/02/17 02:01:41;;;;;;;43.77;30.87;;;;;;;9.03;100.00;100493.34;5114215;28;20481;-69
2023/02/17 02:04:08;;;;;;;51.73;34.87;;;;;;;9.13;100.00;100493.47;5104200;28;20441;-69
2023/02/17 02:06:36;;;;;;;53.10;34.00;;;;;;;9.15;100.00;100494.19;5101528;28;20480;-69
2023/02/17 02:09:04;;;;;;;49.37;33.17;;;;;;;9.17;100.00;100484.22;5109861;28;20482;-67
2023/02/17 02:11:31;;;;;;;43.20;30.83;;;;;;;9.15;100.00;100482.63;5106283;28;20507;-68
2023/02/17 02:13:58;;;;;;;42.90;30.17;;;;;;;9.07;100.00;100479.78;5107225;28;20440;-68
